sensor_id;sensor_type;location;lat;lon;timestamp;P1;durP1;ratioP1;P2;durP2;ratioP2
37284;SDS011;23172;53.550;9.964;2022-08-21T00:03:24;166.02;;;150.52;;
37284;SDS011;23172;53.550;9.964;2022-08-21T00:08:26;165.20;;;150.38;;
37284;SDS011;23172;53.550;9.964;2022-08-21T00:13:28;163.63;;;148.32;;
37284;SDS011;23172;53.550;9.964;2022-08-21T00:18:31;127.57;;;115.28;;
37284;SDS011;23172;53.550;9.964;2022-08-21T00:23:34;137.98;;;125.00;;
37284;SDS011;23172;53.550;9.964;2022-08-21T00:28:36;140.57;;;127.13;;
37284;SDS011;23172;53.550;9.964;2022-08-21T00:33:40;167.50;;;152.35;;
37284;SDS011;23172;53.550;9.964;2022-08-21T00:38:42;187.38;;;169.77;;
37284;SDS011;23172;53.550;9.964;2022-08-21T00:43:44;124.88;;;112.65;;
37284;SDS011;23172;53.550;9.964;2022-08-21T00:48:47;114.00;;;104.05;;
37284;SDS011;23172;53.550;9.964;2022-08-21T00:53:50;77.35;;;69.53;;
37284;SDS011;23172;53.550;9.964;2022-08-21T00:58:52;68.85;;;62.78;;
37284;SDS011;23172;53.550;9.964;2022-08-21T01:03:57;70.57;;;63.35;;
37284;SDS011;23172;53.550;9.964;2022-08-21T01:08:59;60.50;;;54.60;;
37284;SDS011;23172;53.550;9.964;2022-08-21T01:14:01;72.00;;;64.82;;
37284;SDS011;23172;53.550;9.964;2022-08-21T01:19:05;75.30;;;68.60;;
37284;SDS011;23172;53.550;9.964;2022-08-21T01:24:09;71.55;;;64.70;;
37284;SDS011;23172;53.550;9.964;2022-08-21T01:29:13;79.63;;;72.20;;
37284;SDS011;23172;53.550;9.964;2022-08-21T01:34:16;58.10;;;52.42;;
37284;SDS011;23172;53.550;9.964;2022-08-21T01:39:20;72.03;;;64.93;;
37284;SDS011;23172;53.550;9.964;2022-08-21T01:44:22;67.38;;;61.88;;
37284;SDS011;23172;53.550;9.964;2022-08-21T01:49:25;68.68;;;62.63;;
37284;SDS011;23172;53.550;9.964;2022-08-21T01:54:28;63.90;;;58.35;;
37284;SDS011;23172;53.550;9.964;2022-08-21T01:59:31;77.00;;;70.40;;
37284;SDS011;23172;53.550;9.964;2022-08-21T02:04:33;71.03;;;64.40;;
37284;SDS011;23172;53.550;9.964;2022-08-21T02:09:37;72.85;;;65.65;;
37284;SDS011;23172;53.550;9.964;2022-08-21T02:14:41;68.47;;;62.28;;
37284;SDS011;23172;53.550;9.964;2022-08-21T02:19:43;76.25;;;68.65;;
37284;SDS011;23172;53.550;9.964;2022-08-21T02:24:47;67.30;;;60.65;;
37284;SDS011;23172;53.550;9.964;2022-08-21T02:29:49;88.10;;;80.03;;
37284;SDS011;23172;53.550;9.964;2022-08-21T02:34:51;71.78;;;65.13;;
37284;SDS011;23172;53.550;9.964;2022-08-21T02:39:55;59.17;;;53.72;;
37284;SDS011;23172;53.550;9.964;2022-08-21T02:44:57;50.08;;;45.55;;
37284;SDS011;23172;53.550;9.964;2022-08-21T02:49:59;62.47;;;56.60;;
37284;SDS011;23172;53.550;9.964;2022-08-21T02:55:03;45.03;;;40.92;;
37284;SDS011;23172;53.550;9.964;2022-08-21T03:00:05;40.67;;;36.88;;
37284;SDS011;23172;53.550;9.964;2022-08-21T03:05:09;45.38;;;41.05;;
37284;SDS011;23172;53.550;9.964;2022-08-21T03:10:13;44.33;;;39.97;;
37284;SDS011;23172;53.550;9.964;2022-08-21T03:15:16;50.72;;;45.60;;
37284;SDS011;23172;53.550;9.964;2022-08-21T03:20:20;40.38;;;35.97;;
37284;SDS011;23172;53.550;9.964;2022-08-21T03:25:25;55.22;;;50.25;;
37284;SDS011;23172;53.550;9.964;2022-08-21T03:30:28;41.53;;;37.42;;
37284;SDS011;23172;53.550;9.964;2022-08-21T03:35:31;46.53;;;42.20;;
37284;SDS011;23172;53.550;9.964;2022-08-21T03:40:34;46.63;;;41.85;;
37284;SDS011;23172;53.550;9.964;2022-08-21T03:45:37;43.45;;;38.80;;
37284;SDS011;23172;53.550;9.964;2022-08-21T03:50:41;43.90;;;39.08;;
37284;SDS011;23172;53.550;9.964;2022-08-21T03:55:45;51.50;;;46.20;;
37284;SDS011;23172;53.550;9.964;2022-08-21T04:00:49;45.38;;;40.55;;
37284;SDS011;23172;53.550;9.964;2022-08-21T04:05:52;50.30;;;45.35;;
37284;SDS011;23172;53.550;9.964;2022-08-21T04:10:56;52.00;;;46.92;;
37284;SDS011;23172;53.550;9.964;2022-08-21T04:15:58;60.75;;;54.45;;
37284;SDS011;23172;53.550;9.964;2022-08-21T04:21:01;44.67;;;39.80;;
37284;SDS011;23172;53.550;9.964;2022-08-21T04:26:05;43.03;;;35.08;;
37284;SDS011;23172;53.550;9.964;2022-08-21T04:31:07;42.85;;;38.92;;
37284;SDS011;23172;53.550;9.964;2022-08-21T04:36:10;42.75;;;38.28;;
37284;SDS011;23172;53.550;9.964;2022-08-21T04:41:13;54.83;;;49.70;;
37284;SDS011;23172;53.550;9.964;2022-08-21T04:46:15;60.83;;;55.78;;
37284;SDS011;23172;53.550;9.964;2022-08-21T04:51:19;60.78;;;54.60;;
37284;SDS011;23172;53.550;9.964;2022-08-21T04:56:26;68.93;;;62.15;;
37284;SDS011;23172;53.550;9.964;2022-08-21T05:01:32;69.38;;;63.25;;
37284;SDS011;23172;53.550;9.964;2022-08-21T05:06:36;84.00;;;75.07;;
37284;SDS011;23172;53.550;9.964;2022-08-21T05:11:42;80.00;;;72.78;;
37284;SDS011;23172;53.550;9.964;2022-08-21T05:16:45;76.57;;;68.78;;
37284;SDS011;23172;53.550;9.964;2022-08-21T05:21:47;97.95;;;89.32;;
37284;SDS011;23172;53.550;9.964;2022-08-21T05:26:51;94.53;;;85.20;;
37284;SDS011;23172;53.550;9.964;2022-08-21T05:31:53;92.82;;;84.32;;
37284;SDS011;23172;53.550;9.964;2022-08-21T05:36:55;89.07;;;80.97;;
37284;SDS011;23172;53.550;9.964;2022-08-21T05:41:59;95.75;;;86.43;;
37284;SDS011;23172;53.550;9.964;2022-08-21T05:47:02;86.00;;;77.68;;
37284;SDS011;23172;53.550;9.964;2022-08-21T05:52:05;109.57;;;100.28;;
37284;SDS011;23172;53.550;9.964;2022-08-21T05:57:08;85.53;;;77.55;;
37284;SDS011;23172;53.550;9.964;2022-08-21T06:02:10;85.68;;;78.80;;
37284;SDS011;23172;53.550;9.964;2022-08-21T06:07:13;101.05;;;92.35;;
37284;SDS011;23172;53.550;9.964;2022-08-21T06:12:16;87.97;;;80.65;;
37284;SDS011;23172;53.550;9.964;2022-08-21T06:17:18;120.65;;;110.30;;
37284;SDS011;23172;53.550;9.964;2022-08-21T06:22:21;126.18;;;115.45;;
37284;SDS011;23172;53.550;9.964;2022-08-21T06:27:24;122.43;;;111.35;;
37284;SDS011;23172;53.550;9.964;2022-08-21T06:32:26;110.93;;;101.40;;
37284;SDS011;23172;53.550;9.964;2022-08-21T06:37:28;96.68;;;87.80;;
37284;SDS011;23172;53.550;9.964;2022-08-21T06:42:32;122.60;;;113.00;;
37284;SDS011;23172;53.550;9.964;2022-08-21T06:47:34;108.18;;;98.93;;
37284;SDS011;23172;53.550;9.964;2022-08-21T06:52:37;141.45;;;128.70;;
37284;SDS011;23172;53.550;9.964;2022-08-21T06:57:41;140.02;;;127.10;;
37284;SDS011;23172;53.550;9.964;2022-08-21T07:02:43;107.22;;;98.30;;
37284;SDS011;23172;53.550;9.964;2022-08-21T07:07:46;126.82;;;115.80;;
37284;SDS011;23172;53.550;9.964;2022-08-21T07:12:50;114.55;;;105.00;;
37284;SDS011;23172;53.550;9.964;2022-08-21T07:17:52;116.72;;;107.22;;
37284;SDS011;23172;53.550;9.964;2022-08-21T07:22:54;119.65;;;110.22;;
37284;SDS011;23172;53.550;9.964;2022-08-21T07:27:58;111.15;;;100.45;;
37284;SDS011;23172;53.550;9.964;2022-08-21T07:33:00;134.02;;;122.75;;
37284;SDS011;23172;53.550;9.964;2022-08-21T07:38:02;141.68;;;130.70;;
37284;SDS011;23172;53.550;9.964;2022-08-21T07:43:06;168.57;;;154.45;;
37284;SDS011;23172;53.550;9.964;2022-08-21T07:48:08;158.85;;;144.73;;
37284;SDS011;23172;53.550;9.964;2022-08-21T07:53:11;192.48;;;174.75;;
37284;SDS011;23172;53.550;9.964;2022-08-21T07:58:14;151.95;;;138.52;;
37284;SDS011;23172;53.550;9.964;2022-08-21T08:03:17;148.82;;;135.98;;
37284;SDS011;23172;53.550;9.964;2022-08-21T08:08:19;124.30;;;113.22;;
37284;SDS011;23172;53.550;9.964;2022-08-21T08:13:23;152.43;;;137.43;;
37284;SDS011;23172;53.550;9.964;2022-08-21T08:18:25;150.70;;;138.73;;
37284;SDS011;23172;53.550;9.964;2022-08-21T08:23:27;155.82;;;142.68;;
37284;SDS011;23172;53.550;9.964;2022-08-21T08:28:32;146.00;;;133.50;;
37284;SDS011;23172;53.550;9.964;2022-08-21T08:33:34;132.40;;;120.40;;
37284;SDS011;23172;53.550;9.964;2022-08-21T08:38:36;132.73;;;122.10;;
37284;SDS011;23172;53.550;9.964;2022-08-21T08:43:48;143.43;;;129.48;;
37284;SDS011;23172;53.550;9.964;2022-08-21T08:48:53;273.58;;;244.60;;
37284;SDS011;23172;53.550;9.964;2022-08-21T08:53:57;284.60;;;256.45;;
37284;SDS011;23172;53.550;9.964;2022-08-21T08:59:02;297.92;;;265.60;;
37284;SDS011;23172;53.550;9.964;2022-08-21T09:04:08;146.65;;;131.75;;
37284;SDS011;23172;53.550;9.964;2022-08-21T09:09:16;312.95;;;280.77;;
37284;SDS011;23172;53.550;9.964;2022-08-21T09:14:24;157.98;;;142.18;;
37284;SDS011;23172;53.550;9.964;2022-08-21T09:19:34;159.73;;;143.55;;
37284;SDS011;23172;53.550;9.964;2022-08-21T09:24:44;215.07;;;191.43;;
37284;SDS011;23172;53.550;9.964;2022-08-21T09:29:52;154.02;;;137.77;;
37284;SDS011;23172;53.550;9.964;2022-08-21T09:34:58;151.90;;;137.38;;
37284;SDS011;23172;53.550;9.964;2022-08-21T09:40:03;247.27;;;189.35;;
37284;SDS011;23172;53.550;9.964;2022-08-21T09:45:18;345.88;;;270.98;;
37284;SDS011;23172;53.550;9.964;2022-08-21T09:50:22;243.52;;;220.05;;
37284;SDS011;23172;53.550;9.964;2022-08-21T09:55:29;261.13;;;223.02;;
37284;SDS011;23172;53.550;9.964;2022-08-21T10:00:57;1399.25;;;993.90;;
37284;SDS011;23172;53.550;9.964;2022-08-21T10:06:02;1481.70;;;943.67;;
37284;SDS011;23172;53.550;9.964;2022-08-21T10:11:09;871.15;;;789.95;;
37284;SDS011;23172;53.550;9.964;2022-08-21T10:16:17;684.80;;;629.92;;
37284;SDS011;23172;53.550;9.964;2022-08-21T10:21:27;670.28;;;612.95;;
37284;SDS011;23172;53.550;9.964;2022-08-21T10:26:40;721.03;;;670.20;;
37284;SDS011;23172;53.550;9.964;2022-08-21T10:31:55;527.63;;;490.45;;
37284;SDS011;23172;53.550;9.964;2022-08-21T10:37:07;510.33;;;480.13;;
37284;SDS011;23172;53.550;9.964;2022-08-21T10:42:25;758.97;;;701.38;;
37284;SDS011;23172;53.550;9.964;2022-08-21T10:47:34;662.97;;;603.28;;
37284;SDS011;23172;53.550;9.964;2022-08-21T10:52:54;677.80;;;619.70;;
37284;SDS011;23172;53.550;9.964;2022-08-21T10:58:14;743.13;;;678.63;;
37284;SDS011;23172;53.550;9.964;2022-08-21T11:03:27;765.60;;;710.65;;
37284;SDS011;23172;53.550;9.964;2022-08-21T11:08:35;792.92;;;734.53;;
37284;SDS011;23172;53.550;9.964;2022-08-21T11:13:41;801.22;;;738.70;;
37284;SDS011;23172;53.550;9.964;2022-08-21T11:18:49;624.50;;;580.28;;
37284;SDS011;23172;53.550;9.964;2022-08-21T11:24:00;633.08;;;593.78;;
37284;SDS011;23172;53.550;9.964;2022-08-21T11:29:11;541.95;;;506.55;;
37284;SDS011;23172;53.550;9.964;2022-08-21T11:34:23;724.42;;;670.83;;
37284;SDS011;23172;53.550;9.964;2022-08-21T11:39:44;833.30;;;766.30;;
37284;SDS011;23172;53.550;9.964;2022-08-21T11:45:00;743.08;;;691.28;;
37284;SDS011;23172;53.550;9.964;2022-08-21T11:50:16;591.88;;;548.33;;
37284;SDS011;23172;53.550;9.964;2022-08-21T11:55:23;530.08;;;494.83;;
37284;SDS011;23172;53.550;9.964;2022-08-21T12:00:30;435.85;;;409.30;;
37284;SDS011;23172;53.550;9.964;2022-08-21T12:05:38;522.50;;;488.58;;
37284;SDS011;23172;53.550;9.964;2022-08-21T12:10:46;479.05;;;448.73;;
37284;SDS011;23172;53.550;9.964;2022-08-21T12:16:07;587.22;;;546.65;;
37284;SDS011;23172;53.550;9.964;2022-08-21T12:21:22;684.22;;;637.15;;
37284;SDS011;23172;53.550;9.964;2022-08-21T12:26:27;686.35;;;639.53;;
37284;SDS011;23172;53.550;9.964;2022-08-21T12:31:30;752.92;;;692.28;;
37284;SDS011;23172;53.550;9.964;2022-08-21T12:36:38;674.22;;;618.28;;
37284;SDS011;23172;53.550;9.964;2022-08-21T12:41:45;753.47;;;691.83;;
37284;SDS011;23172;53.550;9.964;2022-08-21T12:46:51;740.45;;;670.97;;
37284;SDS011;23172;53.550;9.964;2022-08-21T12:52:00;740.35;;;680.45;;
37284;SDS011;23172;53.550;9.964;2022-08-21T12:57:06;651.53;;;596.08;;
37284;SDS011;23172;53.550;9.964;2022-08-21T13:02:11;684.45;;;621.63;;
37284;SDS011;23172;53.550;9.964;2022-08-21T13:07:22;825.97;;;749.63;;
37284;SDS011;23172;53.550;9.964;2022-08-21T13:12:28;744.40;;;683.25;;
37284;SDS011;23172;53.550;9.964;2022-08-21T13:17:31;721.95;;;654.40;;
37284;SDS011;23172;53.550;9.964;2022-08-21T13:22:41;890.95;;;797.17;;
37284;SDS011;23172;53.550;9.964;2022-08-21T13:27:45;968.50;;;864.05;;
37284;SDS011;23172;53.550;9.964;2022-08-21T13:32:59;1492.15;;;986.75;;
37284;SDS011;23172;53.550;9.964;2022-08-21T13:38:06;1629.03;;;999.90;;
37284;SDS011;23172;53.550;9.964;2022-08-21T13:43:10;1999.90;;;999.90;;
37284;SDS011;23172;53.550;9.964;2022-08-21T13:48:14;1818.43;;;999.90;;
37284;SDS011;23172;53.550;9.964;2022-08-21T13:53:22;1999.90;;;999.90;;
37284;SDS011;23172;53.550;9.964;2022-08-21T13:58:30;1999.90;;;999.90;;
37284;SDS011;23172;53.550;9.964;2022-08-21T14:03:34;1999.90;;;999.90;;
37284;SDS011;23172;53.550;9.964;2022-08-21T14:08:40;1999.90;;;999.90;;
37284;SDS011;23172;53.550;9.964;2022-08-21T14:13:43;1999.90;;;999.90;;
37284;SDS011;23172;53.550;9.964;2022-08-21T14:18:51;1999.90;;;999.90;;
37284;SDS011;23172;53.550;9.964;2022-08-21T14:24:06;1999.90;;;999.90;;
37284;SDS011;23172;53.550;9.964;2022-08-21T14:29:10;1999.90;;;999.90;;
37284;SDS011;23172;53.550;9.964;2022-08-21T14:34:15;1999.90;;;999.90;;
37284;SDS011;23172;53.550;9.964;2022-08-21T14:39:19;1999.90;;;999.90;;
37284;SDS011;23172;53.550;9.964;2022-08-21T14:44:21;1999.90;;;999.90;;
37284;SDS011;23172;53.550;9.964;2022-08-21T14:49:24;1999.90;;;999.90;;
37284;SDS011;23172;53.550;9.964;2022-08-21T14:54:30;1999.90;;;999.90;;
37284;SDS011;23172;53.550;9.964;2022-08-21T14:59:32;1999.90;;;999.90;;
37284;SDS011;23172;53.550;9.964;2022-08-21T15:04:34;1999.90;;;999.90;;
37284;SDS011;23172;53.550;9.964;2022-08-21T15:09:37;1999.90;;;999.90;;
37284;SDS011;23172;53.550;9.964;2022-08-21T15:14:39;1996.57;;;999.90;;
37284;SDS011;23172;53.550;9.964;2022-08-21T15:19:41;1999.90;;;999.90;;
37284;SDS011;23172;53.550;9.964;2022-08-21T15:24:45;1998.88;;;999.90;;
37284;SDS011;23172;53.550;9.964;2022-08-21T15:29:46;1999.90;;;999.90;;
37284;SDS011;23172;53.550;9.964;2022-08-21T15:34:48;1741.40;;;999.90;;
37284;SDS011;23172;53.550;9.964;2022-08-21T15:39:52;1581.38;;;999.90;;
37284;SDS011;23172;53.550;9.964;2022-08-21T15:44:54;1728.35;;;973.70;;
37284;SDS011;23172;53.550;9.964;2022-08-21T15:49:58;1555.53;;;976.20;;
37284;SDS011;23172;53.550;9.964;2022-08-21T15:55:01;1196.65;;;898.80;;
37284;SDS011;23172;53.550;9.964;2022-08-21T16:00:06;1302.25;;;932.83;;
37284;SDS011;23172;53.550;9.964;2022-08-21T16:05:13;486.00;;;374.15;;
37284;SDS011;23172;53.550;9.964;2022-08-21T16:10:21;286.80;;;234.73;;
37284;SDS011;23172;53.550;9.964;2022-08-21T16:15:25;293.88;;;255.18;;
37284;SDS011;23172;53.550;9.964;2022-08-21T16:20:28;721.60;;;557.33;;
37284;SDS011;23172;53.550;9.964;2022-08-21T16:25:31;510.42;;;458.35;;
37284;SDS011;23172;53.550;9.964;2022-08-21T16:30:37;738.80;;;652.53;;
37284;SDS011;23172;53.550;9.964;2022-08-21T16:35:39;705.63;;;556.85;;
37284;SDS011;23172;53.550;9.964;2022-08-21T16:40:43;687.13;;;614.10;;
37284;SDS011;23172;53.550;9.964;2022-08-21T16:45:45;641.03;;;505.05;;
37284;SDS011;23172;53.550;9.964;2022-08-21T16:50:47;657.17;;;588.65;;
37284;SDS011;23172;53.550;9.964;2022-08-21T16:55:50;871.72;;;701.00;;
37284;SDS011;23172;53.550;9.964;2022-08-21T17:00:53;799.10;;;656.75;;
37284;SDS011;23172;53.550;9.964;2022-08-21T17:05:55;1376.68;;;851.83;;
37284;SDS011;23172;53.550;9.964;2022-08-21T17:10:58;866.33;;;714.67;;
37284;SDS011;23172;53.550;9.964;2022-08-21T17:16:01;693.33;;;618.80;;
37284;SDS011;23172;53.550;9.964;2022-08-21T17:21:04;702.88;;;552.63;;
37284;SDS011;23172;53.550;9.964;2022-08-21T17:26:07;619.75;;;520.25;;
37284;SDS011;23172;53.550;9.964;2022-08-21T17:31:09;400.02;;;355.08;;
37284;SDS011;23172;53.550;9.964;2022-08-21T17:36:12;601.63;;;500.42;;
37284;SDS011;23172;53.550;9.964;2022-08-21T17:41:16;379.80;;;338.98;;
37284;SDS011;23172;53.550;9.964;2022-08-21T17:46:20;379.25;;;325.95;;
37284;SDS011;23172;53.550;9.964;2022-08-21T17:51:23;287.42;;;236.85;;
37284;SDS011;23172;53.550;9.964;2022-08-21T17:56:28;184.55;;;142.68;;
37284;SDS011;23172;53.550;9.964;2022-08-21T18:01:33;202.40;;;180.88;;
37284;SDS011;23172;53.550;9.964;2022-08-21T18:06:38;174.10;;;154.18;;
37284;SDS011;23172;53.550;9.964;2022-08-21T18:11:42;117.45;;;98.20;;
37284;SDS011;23172;53.550;9.964;2022-08-21T18:16:44;134.18;;;117.50;;
37284;SDS011;23172;53.550;9.964;2022-08-21T18:21:46;129.60;;;115.75;;
37284;SDS011;23172;53.550;9.964;2022-08-21T18:26:49;124.80;;;111.90;;
37284;SDS011;23172;53.550;9.964;2022-08-21T18:31:52;95.68;;;85.82;;
37284;SDS011;23172;53.550;9.964;2022-08-21T18:36:54;104.50;;;94.15;;
37284;SDS011;23172;53.550;9.964;2022-08-21T18:41:58;99.57;;;88.78;;
37284;SDS011;23172;53.550;9.964;2022-08-21T18:47:02;103.25;;;93.13;;
37284;SDS011;23172;53.550;9.964;2022-08-21T18:52:06;94.97;;;85.63;;
37284;SDS011;23172;53.550;9.964;2022-08-21T18:57:10;77.43;;;69.80;;
37284;SDS011;23172;53.550;9.964;2022-08-21T19:02:13;67.88;;;60.63;;
37284;SDS011;23172;53.550;9.964;2022-08-21T19:07:15;87.30;;;77.57;;
37284;SDS011;23172;53.550;9.964;2022-08-21T19:12:22;102.53;;;92.50;;
37284;SDS011;23172;53.550;9.964;2022-08-21T19:17:24;105.00;;;94.43;;
37284;SDS011;23172;53.550;9.964;2022-08-21T19:22:27;134.50;;;120.82;;
37284;SDS011;23172;53.550;9.964;2022-08-21T19:27:31;87.75;;;79.57;;
37284;SDS011;23172;53.550;9.964;2022-08-21T19:32:34;110.95;;;99.10;;
37284;SDS011;23172;53.550;9.964;2022-08-21T19:37:38;78.90;;;69.35;;
37284;SDS011;23172;53.550;9.964;2022-08-21T19:42:42;113.13;;;102.50;;
37284;SDS011;23172;53.550;9.964;2022-08-21T19:47:44;124.78;;;113.35;;
37284;SDS011;23172;53.550;9.964;2022-08-21T19:52:47;74.78;;;67.30;;
37284;SDS011;23172;53.550;9.964;2022-08-21T19:57:50;113.88;;;102.82;;
37284;SDS011;23172;53.550;9.964;2022-08-21T20:02:53;79.80;;;72.95;;
37284;SDS011;23172;53.550;9.964;2022-08-21T20:07:55;63.17;;;56.60;;
37284;SDS011;23172;53.550;9.964;2022-08-21T20:12:59;69.65;;;59.72;;
37284;SDS011;23172;53.550;9.964;2022-08-21T20:18:01;77.57;;;70.05;;
37284;SDS011;23172;53.550;9.964;2022-08-21T20:23:03;61.65;;;55.63;;
37284;SDS011;23172;53.550;9.964;2022-08-21T20:28:07;95.72;;;86.38;;
37284;SDS011;23172;53.550;9.964;2022-08-21T20:33:09;114.53;;;104.38;;
37284;SDS011;23172;53.550;9.964;2022-08-21T20:38:12;48.95;;;44.22;;
37284;SDS011;23172;53.550;9.964;2022-08-21T20:43:15;50.65;;;45.20;;
37284;SDS011;23172;53.550;9.964;2022-08-21T20:48:19;64.05;;;57.15;;
37284;SDS011;23172;53.550;9.964;2022-08-21T20:53:26;71.90;;;64.57;;
37284;SDS011;23172;53.550;9.964;2022-08-21T20:58:32;66.43;;;60.33;;
37284;SDS011;23172;53.550;9.964;2022-08-21T21:03:37;69.22;;;57.63;;
37284;SDS011;23172;53.550;9.964;2022-08-21T21:08:42;62.58;;;56.35;;
37284;SDS011;23172;53.550;9.964;2022-08-21T21:13:48;71.93;;;65.30;;
37284;SDS011;23172;53.550;9.964;2022-08-21T21:18:52;64.68;;;58.38;;
37284;SDS011;23172;53.550;9.964;2022-08-21T21:23:58;81.70;;;73.97;;
37284;SDS011;23172;53.550;9.964;2022-08-21T21:29:05;62.45;;;56.75;;
37284;SDS011;23172;53.550;9.964;2022-08-21T21:34:08;78.68;;;70.07;;
37284;SDS011;23172;53.550;9.964;2022-08-21T21:39:13;64.90;;;58.55;;
37284;SDS011;23172;53.550;9.964;2022-08-21T21:49:46;42.75;;;38.50;;
37284;SDS011;23172;53.550;9.964;2022-08-21T21:54:55;61.75;;;55.72;;
37284;SDS011;23172;53.550;9.964;2022-08-21T22:00:00;60.00;;;54.20;;
37284;SDS011;23172;53.550;9.964;2022-08-21T22:05:07;74.60;;;67.63;;
37284;SDS011;23172;53.550;9.964;2022-08-21T22:10:14;64.82;;;58.85;;
37284;SDS011;23172;53.550;9.964;2022-08-21T22:15:19;79.45;;;71.93;;
37284;SDS011;23172;53.550;9.964;2022-08-21T22:20:26;73.13;;;66.50;;
37284;SDS011;23172;53.550;9.964;2022-08-21T22:25:34;60.13;;;53.85;;
37284;SDS011;23172;53.550;9.964;2022-08-21T22:30:39;82.38;;;74.75;;
37284;SDS011;23172;53.550;9.964;2022-08-21T22:35:43;73.63;;;67.45;;
37284;SDS011;23172;53.550;9.964;2022-08-21T22:40:46;67.75;;;61.67;;
37284;SDS011;23172;53.550;9.964;2022-08-21T22:45:50;66.65;;;60.38;;
37284;SDS011;23172;53.550;9.964;2022-08-21T22:50:54;71.53;;;64.50;;
37284;SDS011;23172;53.550;9.964;2022-08-21T22:55:58;77.55;;;70.63;;
37284;SDS011;23172;53.550;9.964;2022-08-21T23:01:03;60.13;;;54.60;;
37284;SDS011;23172;53.550;9.964;2022-08-21T23:06:19;76.40;;;69.18;;
37284;SDS011;23172;53.550;9.964;2022-08-21T23:11:23;67.45;;;61.50;;
37284;SDS011;23172;53.550;9.964;2022-08-21T23:16:30;60.08;;;54.03;;
37284;SDS011;23172;53.550;9.964;2022-08-21T23:21:38;66.35;;;60.47;;
37284;SDS011;23172;53.550;9.964;2022-08-21T23:26:45;68.05;;;59.92;;
37284;SDS011;23172;53.550;9.964;2022-08-21T23:31:55;73.57;;;66.43;;
37284;SDS011;23172;53.550;9.964;2022-08-21T23:37:10;71.47;;;64.60;;
37284;SDS011;23172;53.550;9.964;2022-08-21T23:42:40;82.90;;;74.40;;
37284;SDS011;23172;53.550;9.964;2022-08-21T23:47:47;41.33;;;37.30;;
37284;SDS011;23172;53.550;9.964;2022-08-21T23:52:59;45.78;;;41.08;;
37284;SDS011;23172;53.550;9.964;2022-08-21T23:58:08;55.72;;;50.35;;
